Aviation Digital Data Service (ADDS)

Output produced by METARs form (1003 UTC 19 January 2019)
found at http://www.aviationweather.gov/metar/data/
 
SECU 191000Z AUTO VRB02KT ////NDV NCD 12/12 Q1024
SEGU 191000Z 08003KT 060V120 8000 -RA FEW008 BKN023 OVC090 23/23 Q1010 TEMPO 6000 RMK A2984
SEGU 190925Z 1912/2012 05004KT 9999 BKN023 BKN100 
     FM191700 12005KT 9999 SCT026 SCT100 
     TEMPO 1922/1924 8000 SHRA BKN023 BKN100 
     BECMG 2001/2002 23007KT 
     BECMG 2006/2007 FEW010 BKN020 OVC090 
     TEMPO 2008/2010 8000 RA TX30/1920Z TN23/2011Z
       
SELT 191000Z 18004KT 9999 SCT007 BKN030 10/10 Q1028
SELT 190925Z 1912/2012 19015KT 9999 BKN030 
     TEMPO 1912/1914 19004KT FEW010 BKN030 
     BECMG 2000/2001 17008KT 
     BECMG 2005/2006 20005KT 9999 FEW010 BKN030 TX19/1919Z TN09/2011Z
       
SEMT 190900Z 21006KT 9999 BKN020 24/22 Q1010
SEMT 190925Z 1912/2012 21006KT 9999 BKN020 
     TEMPO 1916/1919 27008KT 
     BECMG 1922/1923 SCT020 
     BECMG 2005/2006 BKN020 TX30/1919Z TN23/2010Z
       
SEQM 191000Z 07002KT 9999 FEW005 SCT023 BKN080 12/12 Q1024 NOSIG RMK A3026
SEQM 190925Z 1912/2012 VRB03KT 9999 SCT033 SCT080 
     FM191800 35010KT 9999 SCT033 
     TEMPO 1918/1919 BKN033 
     FM200000 03004KT 9999 SCT006 SCT020 
     FM200600 00000KT 6000 BCFG SCT005 BKN020 TX24/1920Z TN11/2011Z